createdAt,value
2023-04-24T00:00:06.744Z,49.18
2023-04-24T00:01:06.758Z,49.49
2023-04-24T00:02:06.796Z,43.13
2023-04-24T00:03:06.835Z,42.75
2023-04-24T00:04:07.026Z,42.64
2023-04-24T00:05:06.785Z,45.92
2023-04-24T00:06:06.744Z,44.99
2023-04-24T00:07:06.710Z,42.50
2023-04-24T00:08:06.684Z,42.51
2023-04-24T00:09:06.696Z,47.65
2023-04-24T00:10:06.665Z,43.02
2023-04-24T00:11:06.685Z,42.39
2023-04-24T00:12:06.672Z,42.32
2023-04-24T00:13:06.670Z,42.33
2023-04-24T00:14:06.642Z,42.28
2023-04-24T00:15:06.706Z,42.29
2023-04-24T00:16:06.620Z,47.69
2023-04-24T00:17:06.687Z,48.67
2023-04-24T00:18:06.672Z,42.25
2023-04-24T00:19:06.617Z,47.80
2023-04-24T00:20:06.602Z,42.60
2023-04-24T00:21:06.598Z,42.24
2023-04-24T00:22:06.574Z,42.20
2023-04-24T00:23:06.578Z,42.28
2023-04-24T00:24:06.580Z,42.95
2023-04-24T00:25:06.555Z,42.83
2023-04-24T00:26:06.616Z,49.31
2023-04-24T00:27:06.556Z,49.64
2023-04-24T00:28:06.543Z,42.39
2023-04-24T00:29:06.533Z,42.28
2023-04-24T00:30:06.519Z,48.31
2023-04-24T00:31:06.506Z,47.81
2023-04-24T00:32:06.542Z,42.39
2023-04-24T00:33:06.525Z,42.19
2023-04-24T00:34:06.540Z,48.04
2023-04-24T00:35:06.486Z,43.65
2023-04-24T00:36:07.485Z,42.86
2023-04-24T00:37:06.458Z,48.38
2023-04-24T00:38:06.442Z,42.31
2023-04-24T00:39:07.453Z,42.30
2023-04-24T00:40:06.479Z,42.25
2023-04-24T00:41:06.472Z,42.27
2023-04-24T00:42:06.411Z,42.31
2023-04-24T00:43:07.183Z,42.28
2023-04-24T00:44:06.456Z,48.18
2023-04-24T00:45:06.452Z,42.70
2023-04-24T00:46:06.477Z,43.17
2023-04-24T00:47:06.418Z,43.49
2023-04-24T00:48:06.453Z,53.94
2023-04-24T00:49:06.381Z,50.04
2023-04-24T00:50:06.398Z,43.93
2023-04-24T00:51:06.388Z,42.38
2023-04-24T00:52:06.394Z,42.43
2023-04-24T00:53:06.393Z,43.95
2023-04-24T00:54:06.348Z,46.25
2023-04-24T00:55:06.354Z,42.50
2023-04-24T00:56:06.330Z,42.44
2023-04-24T00:57:06.316Z,42.68
2023-04-24T00:58:06.335Z,49.88
2023-04-24T00:59:06.328Z,42.70
2023-04-24T01:00:06.330Z,42.34
2023-04-24T01:01:07.255Z,42.51
2023-04-24T01:02:06.374Z,48.24
2023-04-24T01:03:06.435Z,42.48
2023-04-24T01:04:06.489Z,42.33
2023-04-24T01:05:06.292Z,47.72
2023-04-24T01:06:06.373Z,47.30
2023-04-24T01:07:06.230Z,46.81
2023-04-24T01:08:06.228Z,52.08
2023-04-24T01:09:06.197Z,42.81
2023-04-24T01:10:06.207Z,42.40
2023-04-24T01:11:06.257Z,42.31
2023-04-24T01:12:06.195Z,46.58
2023-04-24T01:13:06.175Z,43.88
2023-04-24T01:14:06.184Z,42.63
2023-04-24T01:15:06.163Z,42.54
2023-04-24T01:16:06.181Z,42.69
2023-04-24T01:17:06.162Z,51.65
2023-04-24T01:18:06.157Z,42.51
2023-04-24T01:19:06.131Z,42.33
2023-04-24T01:20:06.127Z,42.31
2023-04-24T01:21:06.127Z,46.97
2023-04-24T01:22:06.140Z,51.51
2023-04-24T01:23:06.117Z,48.59
2023-04-24T01:24:06.086Z,42.35
2023-04-24T01:25:06.192Z,42.32
2023-04-24T01:26:06.086Z,42.30
2023-04-24T01:27:06.103Z,42.31
2023-04-24T01:28:06.073Z,42.32
2023-04-24T01:29:06.060Z,42.29
2023-04-24T01:30:06.085Z,42.34
2023-04-24T01:31:06.147Z,49.04
2023-04-24T01:32:06.045Z,49.48
2023-04-24T01:33:06.684Z,47.13
2023-04-24T01:34:06.007Z,42.31
2023-04-24T01:35:06.096Z,42.30
2023-04-24T01:36:06.009Z,42.31
2023-04-24T01:37:06.004Z,42.32
2023-04-24T01:38:06.005Z,42.32
2023-04-24T01:39:05.996Z,42.29
2023-04-24T01:40:05.964Z,42.30
2023-04-24T01:41:05.966Z,42.30
2023-04-24T01:42:05.976Z,42.58
2023-04-24T01:43:05.958Z,42.28
2023-04-24T01:44:05.961Z,42.28
2023-04-24T01:45:05.952Z,42.40
2023-04-24T01:46:05.952Z,48.93
2023-04-24T01:47:05.919Z,48.07
2023-04-24T01:48:05.964Z,42.40
2023-04-24T01:49:05.902Z,42.24
2023-04-24T01:50:05.938Z,42.23
2023-04-24T01:51:05.927Z,54.75
2023-04-24T01:52:05.944Z,48.34
2023-04-24T01:53:05.878Z,43.22
2023-04-24T01:54:05.858Z,48.90
2023-04-24T01:55:05.871Z,51.71
2023-04-24T01:56:05.859Z,42.44
2023-04-24T01:57:05.852Z,42.21
2023-04-24T01:58:05.846Z,44.06
2023-04-24T01:59:05.868Z,53.33
2023-04-24T02:00:05.808Z,48.42
2023-04-24T02:01:05.847Z,42.70
2023-04-24T02:02:05.925Z,47.89
2023-04-24T02:03:06.431Z,48.78
2023-04-24T02:04:06.013Z,48.84
2023-04-24T02:05:05.798Z,42.31
2023-04-24T02:06:05.798Z,45.36
2023-04-24T02:07:05.781Z,42.21
2023-04-24T02:08:05.796Z,42.25
2023-04-24T02:09:05.752Z,48.76
2023-04-24T02:10:05.759Z,45.60
2023-04-24T02:11:05.762Z,56.95
2023-04-24T02:12:05.753Z,48.44
2023-04-24T02:13:05.754Z,42.86
2023-04-24T02:14:05.729Z,47.51
2023-04-24T02:15:05.703Z,48.97
2023-04-24T02:16:05.725Z,45.58
2023-04-24T02:17:05.704Z,50.46
2023-04-24T02:18:05.788Z,48.13
2023-04-24T02:19:05.679Z,42.43
2023-04-24T02:20:05.661Z,42.52
2023-04-24T02:21:05.664Z,46.72
2023-04-24T02:22:05.652Z,44.03
2023-04-24T02:23:05.658Z,43.74
2023-04-24T02:24:05.664Z,49.11
2023-04-24T02:25:05.648Z,42.56
2023-04-24T02:26:05.674Z,49.87
2023-04-24T02:27:05.614Z,54.42
2023-04-24T02:28:05.634Z,45.54
2023-04-24T02:29:05.595Z,51.93
2023-04-24T02:30:05.603Z,57.82
2023-04-24T02:31:05.621Z,48.35
2023-04-24T02:32:05.607Z,49.13
2023-04-24T02:33:05.660Z,51.20
2023-04-24T02:34:05.621Z,51.21
2023-04-24T02:35:05.573Z,43.52
2023-04-24T02:36:05.541Z,46.36
2023-04-24T02:37:05.513Z,50.06
2023-04-24T02:38:05.518Z,47.78
2023-04-24T02:39:05.542Z,50.98
2023-04-24T02:40:05.515Z,47.72
2023-04-24T02:41:05.492Z,51.45
2023-04-24T02:42:05.489Z,50.70
2023-04-24T02:43:05.502Z,56.92
2023-04-24T02:44:05.577Z,50.93
2023-04-24T02:45:05.477Z,48.88
2023-04-24T02:46:05.561Z,60.38
2023-04-24T02:47:05.469Z,56.45
2023-04-24T02:48:05.465Z,52.70
2023-04-24T02:49:05.454Z,51.90
2023-04-24T02:50:05.451Z,52.56
2023-04-24T02:51:05.444Z,47.51
2023-04-24T02:52:05.410Z,46.73
2023-04-24T02:53:05.426Z,53.34
2023-04-24T02:54:05.405Z,54.88
2023-04-24T02:55:05.395Z,55.55
2023-04-24T02:56:05.463Z,55.52
2023-04-24T02:57:05.402Z,53.08
2023-04-24T02:58:05.372Z,46.65
2023-04-24T02:59:05.351Z,51.77
2023-04-24T03:00:05.355Z,47.43
2023-04-24T03:01:05.384Z,52.53
2023-04-24T03:02:05.375Z,58.27
2023-04-24T03:03:05.541Z,55.26
2023-04-24T03:04:05.422Z,51.65
2023-04-24T03:05:05.373Z,58.80
2023-04-24T03:06:05.344Z,54.37
2023-04-24T03:07:05.326Z,56.08
2023-04-24T03:08:05.289Z,55.39
2023-04-24T03:09:05.301Z,53.21
2023-04-24T03:10:05.271Z,60.19
2023-04-24T03:11:05.299Z,58.19
2023-04-24T03:12:05.276Z,58.53
2023-04-24T03:13:05.307Z,53.16
2023-04-24T03:14:05.243Z,58.07
2023-04-24T03:15:06.242Z,57.14
2023-04-24T03:16:05.323Z,55.84
2023-04-24T03:17:05.227Z,56.02
2023-04-24T03:18:05.253Z,60.70
2023-04-24T03:19:05.214Z,54.73
2023-04-24T03:20:05.193Z,59.28
2023-04-24T03:21:05.201Z,62.08
2023-04-24T03:22:05.187Z,66.75
2023-04-24T03:23:05.204Z,56.95
2023-04-24T03:24:05.174Z,65.58
2023-04-24T03:25:05.161Z,62.89
2023-04-24T03:26:05.149Z,62.19
2023-04-24T03:27:05.131Z,51.62
2023-04-24T03:28:05.152Z,60.10
2023-04-24T03:29:05.148Z,63.43
2023-04-24T03:30:05.117Z,61.01
2023-04-24T03:31:05.163Z,63.12
2023-04-24T03:32:05.114Z,60.13
2023-04-24T03:33:05.202Z,69.06
2023-04-24T03:34:05.114Z,57.85
2023-04-24T03:35:05.084Z,65.14
2023-04-24T03:36:05.093Z,62.63
2023-04-24T03:37:05.061Z,58.01
2023-04-24T03:38:05.081Z,61.73
2023-04-24T03:39:05.078Z,70.10
2023-04-24T03:40:05.675Z,64.79
2023-04-24T03:41:05.039Z,66.57
2023-04-24T03:42:06.020Z,67.77
2023-04-24T03:43:05.034Z,66.34
2023-04-24T03:44:05.017Z,59.16
2023-04-24T03:45:05.090Z,62.70
2023-04-24T03:46:05.037Z,66.26
2023-04-24T04:03:03.722Z,58.62
2023-04-24T04:04:03.567Z,65.64
2023-04-24T04:05:03.483Z,65.17
2023-04-24T04:06:03.383Z,65.12
2023-04-24T04:07:03.390Z,65.33
2023-04-24T04:08:03.383Z,67.02
2023-04-24T04:09:03.409Z,64.28
2023-04-24T04:10:04.563Z,68.62
2023-04-24T04:11:05.542Z,62.10
2023-04-24T04:12:05.468Z,61.78
2023-04-24T04:13:04.460Z,56.30
2023-04-24T04:14:04.479Z,66.46
2023-04-24T04:15:04.442Z,65.87
2023-04-24T04:16:04.586Z,66.16
2023-04-24T04:17:04.435Z,64.27
2023-04-24T04:18:04.543Z,68.83
2023-04-24T04:19:04.429Z,63.03
2023-04-24T04:20:04.417Z,65.13
2023-04-24T04:21:04.567Z,59.46
2023-04-24T04:22:04.420Z,66.79
2023-04-24T04:23:04.404Z,66.61
2023-04-24T04:24:04.378Z,69.01
2023-04-24T04:25:04.371Z,68.59
2023-04-24T04:26:04.436Z,64.26
2023-04-24T04:27:05.385Z,60.63
2023-04-24T04:28:04.363Z,67.25
2023-04-24T04:29:04.342Z,69.31
2023-04-24T04:30:04.338Z,67.90
2023-04-24T04:31:04.355Z,64.64
2023-04-24T04:32:04.348Z,69.98
2023-04-24T04:33:04.344Z,66.89
2023-04-24T04:34:04.321Z,69.78
2023-04-24T04:35:04.343Z,66.65
2023-04-24T04:36:04.285Z,69.25
2023-04-24T04:37:04.682Z,66.85
2023-04-24T04:38:04.280Z,63.18
2023-04-24T04:39:04.257Z,70.40
2023-04-24T04:40:04.265Z,68.05
2023-04-24T04:41:04.248Z,69.26
2023-04-24T04:42:05.107Z,68.61
2023-04-24T04:43:05.035Z,67.23
2023-04-24T04:44:04.221Z,65.93
2023-04-24T04:45:04.228Z,62.59
2023-04-24T04:46:04.244Z,63.72
2023-04-24T04:47:04.235Z,71.22
2023-04-24T04:48:04.217Z,67.02
2023-04-24T04:49:04.184Z,65.37
2023-04-24T04:50:04.153Z,71.25
2023-04-24T04:51:04.174Z,68.47
2023-04-24T04:52:04.147Z,62.97
2023-04-24T04:53:04.185Z,71.07
2023-04-24T04:54:04.149Z,65.57
2023-04-24T04:55:04.133Z,70.05
2023-04-24T04:56:04.128Z,68.18
2023-04-24T04:57:04.412Z,68.52
2023-04-24T04:58:05.148Z,67.66
2023-04-24T04:59:04.158Z,69.24
2023-04-24T05:00:04.108Z,64.31
2023-04-24T05:01:04.154Z,72.61
2023-04-24T05:02:04.102Z,68.90
2023-04-24T05:03:19.290Z,62.36
2023-04-24T05:04:06.219Z,69.79
2023-04-24T05:05:04.290Z,69.43
2023-04-24T05:06:04.089Z,66.59
2023-04-24T05:07:04.076Z,69.75
2023-04-24T05:08:05.658Z,71.60
2023-04-24T05:09:04.050Z,69.26
2023-04-24T05:10:04.086Z,66.17
2023-04-24T05:11:04.013Z,66.68
2023-04-24T05:12:04.015Z,67.93
2023-04-24T05:13:04.000Z,71.46
2023-04-24T05:14:04.003Z,70.23
2023-04-24T05:15:03.998Z,69.00
2023-04-24T05:16:04.011Z,69.37
2023-04-24T05:17:04.062Z,70.25
2023-04-24T05:18:04.096Z,68.98
2023-04-24T05:19:03.968Z,70.10
2023-04-24T05:20:04.013Z,68.73
2023-04-24T05:21:03.939Z,69.33
2023-04-24T05:22:04.609Z,70.94
2023-04-24T05:23:03.964Z,69.91
2023-04-24T05:24:03.939Z,71.75
2023-04-24T05:25:03.947Z,69.71
2023-04-24T05:26:06.172Z,69.44
2023-04-24T05:27:03.900Z,66.08
2023-04-24T05:28:03.917Z,71.34
2023-04-24T05:29:03.871Z,70.10
2023-04-24T05:30:03.871Z,67.89
2023-04-24T05:31:03.953Z,69.65
2023-04-24T05:32:03.841Z,69.68
2023-04-24T05:33:03.904Z,70.84
2023-04-24T05:34:03.848Z,71.06
2023-04-24T05:35:03.865Z,69.40
2023-04-24T05:36:03.823Z,69.55
2023-04-24T05:37:03.824Z,69.19
2023-04-24T05:38:03.828Z,63.53
2023-04-24T05:39:03.918Z,72.19
2023-04-24T05:40:03.829Z,71.23
2023-04-24T05:41:03.785Z,70.93
2023-04-24T05:42:03.771Z,66.96
2023-04-24T05:43:03.800Z,68.80
2023-04-24T05:44:03.777Z,70.62
2023-04-24T05:45:03.745Z,71.08
2023-04-24T05:46:03.797Z,61.04
2023-04-24T05:47:03.727Z,72.90
2023-04-24T05:48:03.801Z,69.76
2023-04-24T05:49:03.742Z,68.82
2023-04-24T05:50:03.717Z,72.65
2023-04-24T05:51:03.693Z,68.61
2023-04-24T05:52:03.721Z,66.49
2023-04-24T05:53:03.721Z,66.06
2023-04-24T05:54:03.709Z,68.91
2023-04-24T05:55:03.712Z,68.49
2023-04-24T05:56:03.703Z,69.49
2023-04-24T05:57:03.653Z,66.90
2023-04-24T05:58:03.646Z,65.73
2023-04-24T05:59:03.655Z,71.14
2023-04-24T06:00:03.667Z,64.22
2023-04-24T06:01:03.633Z,67.52
2023-04-24T06:02:03.671Z,68.36
2023-04-24T06:03:04.077Z,65.73
2023-04-24T06:04:03.704Z,68.43
2023-04-24T06:05:03.754Z,69.28
2023-04-24T06:06:03.638Z,68.05
2023-04-24T06:07:03.574Z,66.88
2023-04-24T06:08:03.565Z,64.62
2023-04-24T06:09:03.572Z,67.82
2023-04-24T06:10:03.592Z,67.09
2023-04-24T06:11:04.835Z,69.87
2023-04-24T06:12:04.545Z,64.89
2023-04-24T06:13:03.612Z,66.34
2023-04-24T06:14:03.637Z,67.07
2023-04-24T06:15:03.517Z,67.41
2023-04-24T06:16:03.542Z,67.33
2023-04-24T06:17:03.587Z,66.18
2023-04-24T06:18:03.540Z,69.22
2023-04-24T06:19:03.510Z,63.18
2023-04-24T06:20:03.484Z,66.75
2023-04-24T06:21:03.547Z,68.84
2023-04-24T06:22:04.474Z,65.24
2023-04-24T06:23:03.509Z,66.49
2023-04-24T06:24:03.451Z,72.26
2023-04-24T06:25:03.480Z,68.06
2023-04-24T06:26:03.449Z,67.63
2023-04-24T06:27:03.493Z,69.62
2023-04-24T06:28:03.469Z,64.84
2023-04-24T06:29:03.406Z,64.62
2023-04-24T06:30:03.413Z,68.50
2023-04-24T06:31:03.513Z,66.93
2023-04-24T06:32:03.430Z,67.89
2023-04-24T06:33:16.884Z,65.90
2023-04-24T06:34:05.352Z,68.88
2023-04-24T06:35:03.345Z,69.38
2023-04-24T06:36:03.354Z,66.96
2023-04-24T06:37:03.377Z,68.53
2023-04-24T06:38:03.334Z,65.37
2023-04-24T06:39:03.330Z,60.42
2023-04-24T06:40:03.979Z,68.11
2023-04-24T06:41:03.322Z,68.43
2023-04-24T06:42:03.348Z,68.57
2023-04-24T06:43:03.991Z,69.39
2023-04-24T06:44:03.298Z,67.39
2023-04-24T06:45:03.320Z,67.12
2023-04-24T06:46:03.318Z,71.61
2023-04-24T06:47:03.281Z,66.71
2023-04-24T06:48:03.394Z,66.76
2023-04-24T06:49:03.251Z,59.56
2023-04-24T06:50:03.305Z,69.72
2023-04-24T06:51:03.252Z,63.91
2023-04-24T06:52:03.263Z,69.74
2023-04-24T06:53:03.275Z,61.47
2023-04-24T06:54:03.215Z,69.69
2023-04-24T06:55:03.254Z,70.34
2023-04-24T06:56:03.189Z,66.94
2023-04-24T06:57:03.261Z,70.13
2023-04-24T06:58:03.223Z,68.03
2023-04-24T06:59:03.209Z,66.08
2023-04-24T07:00:03.175Z,66.00
2023-04-24T07:01:03.198Z,67.48
2023-04-24T07:02:03.175Z,67.45
2023-04-24T07:03:03.284Z,69.11
2023-04-24T07:04:03.385Z,65.91
2023-04-24T07:05:03.181Z,65.92
2023-04-24T07:06:03.237Z,69.09
2023-04-24T07:07:03.155Z,65.85
2023-04-24T07:08:03.145Z,63.52
2023-04-24T07:09:03.232Z,68.52
2023-04-24T07:10:03.115Z,65.58
2023-04-24T07:11:03.083Z,67.44
2023-04-24T07:12:03.138Z,65.13
2023-04-24T07:13:03.081Z,66.15
2023-04-24T07:14:03.262Z,65.80
2023-04-24T07:15:03.094Z,68.02
2023-04-24T07:16:03.101Z,69.55
2023-04-24T07:17:03.091Z,65.00
2023-04-24T07:18:05.492Z,65.74
2023-04-24T07:19:04.052Z,67.70
2023-04-24T07:20:03.067Z,65.37
2023-04-24T07:21:03.018Z,56.90
2023-04-24T07:22:02.996Z,66.97
2023-04-24T07:23:03.079Z,61.58
2023-04-24T07:24:02.989Z,68.16
2023-04-24T07:25:02.994Z,63.26
2023-04-24T07:26:03.008Z,67.27
2023-04-24T07:27:02.990Z,66.01
2023-04-24T07:28:02.982Z,65.20
2023-04-24T07:29:02.940Z,65.96
2023-04-24T07:30:02.930Z,69.20
2023-04-24T07:31:02.957Z,62.76
2023-04-24T07:32:04.360Z,63.30
2023-04-24T07:33:03.971Z,65.84
2023-04-24T07:34:02.916Z,66.17
2023-04-24T07:35:02.941Z,64.88
2023-04-24T07:36:02.906Z,61.63
2023-04-24T07:37:02.952Z,66.46
2023-04-24T07:38:02.929Z,62.49
2023-04-24T07:39:02.977Z,61.24
2023-04-24T07:40:02.864Z,67.74
2023-04-24T07:41:02.871Z,69.54
2023-04-24T07:42:02.857Z,65.54
2023-04-24T07:43:02.844Z,67.21
2023-04-24T07:44:02.877Z,60.24
2023-04-24T07:45:02.809Z,69.02
2023-04-24T07:46:02.837Z,64.63
2023-04-24T07:47:02.811Z,68.15
2023-04-24T07:48:02.940Z,63.56
2023-04-24T07:49:13.126Z,62.20
2023-04-24T07:50:04.827Z,64.49
2023-04-24T07:51:02.792Z,67.72
2023-04-24T07:52:02.768Z,67.14
2023-04-24T07:53:02.832Z,64.22
2023-04-24T07:54:02.770Z,66.95
2023-04-24T07:55:02.752Z,65.89
2023-04-24T07:56:02.774Z,67.06
2023-04-24T07:57:02.836Z,64.49
2023-04-24T07:58:02.758Z,66.08
2023-04-24T07:59:02.838Z,69.87
2023-04-24T08:00:02.700Z,66.93
2023-04-24T08:01:02.714Z,67.73
2023-04-24T08:02:02.692Z,63.74
2023-04-24T08:03:02.870Z,72.51
2023-04-24T08:04:02.886Z,67.97
2023-04-24T08:05:02.915Z,69.23
2023-04-24T08:06:02.836Z,63.21
2023-04-24T08:07:02.647Z,65.77
2023-04-24T08:08:02.646Z,67.04
2023-04-24T08:09:02.635Z,66.89
2023-04-24T08:10:02.689Z,65.96
2023-04-24T08:11:02.647Z,66.74
2023-04-24T08:12:02.631Z,64.62
2023-04-24T08:13:02.707Z,63.06
2023-04-24T08:14:02.654Z,68.56
2023-04-24T08:15:02.673Z,66.87
2023-04-24T08:16:02.675Z,65.22
2023-04-24T08:17:02.599Z,68.15
2023-04-24T08:18:02.683Z,68.55
2023-04-24T08:19:02.612Z,68.49
2023-04-24T08:20:02.784Z,65.07
2023-04-24T08:21:02.628Z,56.19
2023-04-24T08:22:02.606Z,70.27
2023-04-24T08:23:02.618Z,64.28
2023-04-24T08:24:03.510Z,67.21
2023-04-24T08:25:02.583Z,67.58
2023-04-24T08:26:02.578Z,69.03
2023-04-24T08:27:02.506Z,64.19
2023-04-24T08:28:02.479Z,68.01
2023-04-24T08:29:02.504Z,65.90
2023-04-24T08:30:02.482Z,64.61
2023-04-24T08:31:02.488Z,70.57
2023-04-24T08:32:02.739Z,65.28
2023-04-24T08:33:02.504Z,66.21
2023-04-24T08:34:02.429Z,69.24
2023-04-24T08:35:02.456Z,65.59
2023-04-24T08:36:02.426Z,69.06
2023-04-24T08:37:02.458Z,63.65
2023-04-24T08:38:02.426Z,67.95
2023-04-24T08:39:02.397Z,66.46
2023-04-24T08:40:02.378Z,67.16
2023-04-24T08:41:02.403Z,67.00
2023-04-24T08:42:02.443Z,64.93
2023-04-24T08:43:02.363Z,69.21
2023-04-24T08:44:03.386Z,67.18
2023-04-24T08:45:02.330Z,68.22
2023-04-24T08:46:05.566Z,66.99
2023-04-24T08:47:02.325Z,68.16
2023-04-24T08:48:02.488Z,64.48
2023-04-24T08:49:02.342Z,68.04
2023-04-24T08:50:02.379Z,66.91
2023-04-24T08:51:02.330Z,65.52
2023-04-24T08:52:02.275Z,63.18
2023-04-24T08:53:04.467Z,64.68
2023-04-24T08:54:02.269Z,69.58
2023-04-24T08:55:02.279Z,70.81
2023-04-24T08:56:02.275Z,67.61
2023-04-24T08:57:02.285Z,67.79
2023-04-24T08:58:02.253Z,64.72
2023-04-24T08:59:02.252Z,66.93
2023-04-24T09:00:02.278Z,65.66
2023-04-24T09:01:02.247Z,68.81
2023-04-24T09:02:02.222Z,65.45
2023-04-24T09:03:02.333Z,72.93
2023-04-24T09:04:02.381Z,68.50
2023-04-24T09:05:02.224Z,67.34
2023-04-24T09:06:02.193Z,63.72
2023-04-24T09:07:02.183Z,63.31
2023-04-24T09:08:02.176Z,68.52
2023-04-24T09:09:02.211Z,64.56
2023-04-24T09:10:02.176Z,70.18
2023-04-24T09:11:02.200Z,69.18
2023-04-24T09:12:02.164Z,65.78
2023-04-24T09:13:02.127Z,68.96
2023-04-24T09:14:02.159Z,65.90
2023-04-24T09:15:02.171Z,68.05
2023-04-24T09:16:02.177Z,66.70
2023-04-24T09:17:02.221Z,68.18
2023-04-24T09:18:02.134Z,67.87
2023-04-24T09:19:02.167Z,64.97
2023-04-24T09:20:02.117Z,67.60
2023-04-24T09:21:02.117Z,65.25
2023-04-24T09:22:02.053Z,68.11
2023-04-24T09:23:02.058Z,70.05
2023-04-24T09:24:02.137Z,68.60
2023-04-24T09:25:02.045Z,64.30
2023-04-24T09:26:02.021Z,63.60
2023-04-24T09:27:02.062Z,66.47
2023-04-24T09:28:02.756Z,66.48
2023-04-24T09:29:02.014Z,69.10
2023-04-24T09:30:02.038Z,63.77
2023-04-24T09:31:02.009Z,69.28
2023-04-24T09:32:02.144Z,66.19
2023-04-24T09:33:02.037Z,65.33
2023-04-24T09:34:02.578Z,69.70
2023-04-24T09:35:03.023Z,65.78
2023-04-24T09:36:01.952Z,65.92
2023-04-24T09:37:01.968Z,66.72
2023-04-24T09:38:01.939Z,66.39
2023-04-24T09:39:01.992Z,63.24
2023-04-24T09:40:01.973Z,68.76
2023-04-24T09:41:01.898Z,65.77
2023-04-24T09:42:01.903Z,70.60
2023-04-24T09:43:01.901Z,64.83
2023-04-24T09:44:01.923Z,67.50
2023-04-24T09:45:11.973Z,67.66
2023-04-24T09:46:03.894Z,65.19
2023-04-24T09:47:01.880Z,69.01
2023-04-24T09:48:01.945Z,70.90
2023-04-24T09:49:02.642Z,65.96
2023-04-24T09:50:01.866Z,62.92
2023-04-24T09:51:01.847Z,66.40
2023-04-24T09:52:01.881Z,67.00
2023-04-24T09:53:01.828Z,66.70
2023-04-24T09:54:01.802Z,62.74
2023-04-24T09:55:01.885Z,66.64
2023-04-24T09:56:01.816Z,65.33
2023-04-24T09:57:01.807Z,64.38
2023-04-24T09:58:33.715Z,69.48
2023-04-24T09:59:34.578Z,66.38
2023-04-24T10:00:34.216Z,69.90
2023-04-24T10:01:34.283Z,66.52
2023-04-24T10:02:01.812Z,65.33
2023-04-24T10:03:33.717Z,68.05
2023-04-24T10:04:01.744Z,63.82
2023-04-24T10:05:34.263Z,67.26
2023-04-24T10:06:01.734Z,65.84
2023-04-24T10:07:01.717Z,64.20
2023-04-24T10:08:01.721Z,68.42
2023-04-24T10:09:01.723Z,66.93
2023-04-24T10:10:01.772Z,65.61
2023-04-24T10:11:01.685Z,69.48
2023-04-24T10:12:01.688Z,64.69
2023-04-24T10:13:01.710Z,69.51
2023-04-24T10:14:01.661Z,70.08
2023-04-24T10:15:01.638Z,67.86
2023-04-24T10:16:01.669Z,63.24
2023-04-24T10:17:01.643Z,68.10
2023-04-24T10:18:01.689Z,64.17
2023-04-24T10:19:01.622Z,69.55
2023-04-24T10:20:01.604Z,63.30
2023-04-24T10:21:01.608Z,67.08
2023-04-24T10:22:01.627Z,67.37
2023-04-24T10:23:01.607Z,66.07
2023-04-24T10:24:01.564Z,62.67
2023-04-24T10:25:01.589Z,69.97
2023-04-24T10:26:01.644Z,69.87
2023-04-24T10:27:01.552Z,65.35
2023-04-24T10:28:01.529Z,64.28
2023-04-24T10:29:01.538Z,63.16
2023-04-24T10:30:01.600Z,69.33
2023-04-24T10:31:01.558Z,66.53
2023-04-24T10:32:01.539Z,69.34
2023-04-24T10:33:01.560Z,67.42
2023-04-24T10:34:01.504Z,65.06
2023-04-24T10:35:01.541Z,66.88
2023-04-24T10:36:01.509Z,66.06
2023-04-24T10:37:01.514Z,66.25
2023-04-24T10:38:01.532Z,65.92
2023-04-24T10:39:01.482Z,64.85
2023-04-24T10:40:01.554Z,66.25
2023-04-24T10:41:01.476Z,66.42
2023-04-24T10:42:01.524Z,69.29
2023-04-24T10:43:01.490Z,68.64
2023-04-24T10:44:01.468Z,68.47
2023-04-24T10:45:01.481Z,64.00
2023-04-24T10:46:01.445Z,65.46
2023-04-24T10:47:01.511Z,69.66
2023-04-24T10:48:03.438Z,66.65
2023-04-24T10:49:01.378Z,67.23
2023-04-24T10:50:01.489Z,69.08
2023-04-24T10:51:01.429Z,68.25
2023-04-24T10:52:01.378Z,67.64
2023-04-24T10:53:01.373Z,66.88
2023-04-24T10:54:01.351Z,66.42
2023-04-24T10:55:01.330Z,65.87
2023-04-24T10:56:01.444Z,65.00
2023-04-24T10:57:02.418Z,70.10
2023-04-24T10:58:01.324Z,66.90
2023-04-24T10:59:01.342Z,63.99
2023-04-24T11:00:01.318Z,69.74
2023-04-24T11:01:01.394Z,68.56
2023-04-24T11:02:01.796Z,70.46
2023-04-24T11:03:01.561Z,67.40
2023-04-24T11:04:01.459Z,65.12
2023-04-24T11:05:02.324Z,67.94
2023-04-24T11:06:01.349Z,70.36
2023-04-24T11:07:01.329Z,69.01
2023-04-24T11:08:01.299Z,73.08
2023-04-24T11:09:01.249Z,73.23
2023-04-24T11:10:01.204Z,65.87
2023-04-24T11:11:01.242Z,68.95
2023-04-24T11:12:01.219Z,68.17
2023-04-24T11:13:01.249Z,72.54
2023-04-24T11:14:01.188Z,68.65
2023-04-24T11:15:01.563Z,66.99
2023-04-24T11:16:01.247Z,67.39
2023-04-24T11:17:01.267Z,68.26
2023-04-24T11:18:01.273Z,59.73
2023-04-24T11:19:01.181Z,68.72
2023-04-24T11:20:04.831Z,68.58
2023-04-24T11:21:02.189Z,73.19
2023-04-24T11:22:01.177Z,68.33
2023-04-24T11:23:01.200Z,66.40
2023-04-24T11:24:01.128Z,65.57
2023-04-24T11:25:01.234Z,63.29
2023-04-24T11:26:01.264Z,69.45
2023-04-24T11:27:01.089Z,64.38
2023-04-24T11:28:01.115Z,68.07
2023-04-24T11:29:01.349Z,65.56
2023-04-24T11:30:01.383Z,68.93
2023-04-24T11:31:01.072Z,64.73
2023-04-24T11:32:01.090Z,65.04
2023-04-24T11:33:01.164Z,69.63
2023-04-24T11:34:01.074Z,70.19
2023-04-24T11:35:01.045Z,66.55
2023-04-24T11:36:01.035Z,63.62
2023-04-24T11:37:01.065Z,65.94
2023-04-24T11:39:02.038Z,66.45
2023-04-24T11:40:02.086Z,69.09
2023-04-24T11:41:00.986Z,62.38
2023-04-24T11:42:01.090Z,63.82
2023-04-24T11:43:00.988Z,67.56
2023-04-24T11:44:00.961Z,68.51
2023-04-24T11:45:01.338Z,68.57
2023-04-24T11:46:01.233Z,69.01
2023-04-24T11:47:01.967Z,67.94
2023-04-24T11:48:00.935Z,67.22
2023-04-24T11:49:00.920Z,65.18
2023-04-24T11:50:01.659Z,69.31
2023-04-24T11:51:00.930Z,63.13
2023-04-24T11:52:01.367Z,68.51
2023-04-24T11:53:01.889Z,65.97
2023-04-24T11:54:04.419Z,64.65
2023-04-24T11:55:02.246Z,67.05
2023-04-24T11:56:00.887Z,65.19
2023-04-24T11:57:00.874Z,71.67
2023-04-24T11:58:00.946Z,64.69
2023-04-24T11:59:00.864Z,60.90
2023-04-24T12:00:01.152Z,66.67
2023-04-24T12:01:00.835Z,70.23
2023-04-24T12:02:00.907Z,69.03
2023-04-24T12:03:01.046Z,62.38
2023-04-24T12:04:01.004Z,65.61
2023-04-24T12:05:01.137Z,66.55
2023-04-24T12:06:00.812Z,67.85
2023-04-24T12:07:00.770Z,68.50
2023-04-24T12:08:00.853Z,70.04
2023-04-24T12:09:04.778Z,68.98
2023-04-24T12:10:03.293Z,68.93
2023-04-24T12:11:00.775Z,68.16
2023-04-24T12:12:00.803Z,66.92
2023-04-24T12:13:00.749Z,65.16
2023-04-24T12:14:00.709Z,67.06
2023-04-24T12:15:01.125Z,70.11
2023-04-24T12:16:00.829Z,67.85
2023-04-24T12:17:00.727Z,63.55
2023-04-24T12:18:00.917Z,68.82
2023-04-24T12:19:00.694Z,65.41
2023-04-24T12:20:00.691Z,66.60
2023-04-24T12:21:01.323Z,70.65
2023-04-24T12:22:01.668Z,69.42
2023-04-24T12:23:00.711Z,65.85
2023-04-24T12:24:00.727Z,68.49
2023-04-24T12:25:00.664Z,68.31
2023-04-24T12:26:00.635Z,68.71
2023-04-24T12:27:00.618Z,66.07
2023-04-24T12:28:00.665Z,62.52
2023-04-24T12:29:00.596Z,69.90
2023-04-24T12:30:00.610Z,68.84
2023-04-24T12:31:00.686Z,67.81
2023-04-24T12:32:00.633Z,67.58
2023-04-24T12:33:01.772Z,70.04
2023-04-24T12:34:00.620Z,65.72
2023-04-24T12:35:00.576Z,64.70
2023-04-24T12:36:00.607Z,59.95
2023-04-24T12:37:00.650Z,64.76
2023-04-24T12:38:00.638Z,65.79
2023-04-24T12:39:00.634Z,66.73
2023-04-24T12:40:00.528Z,64.94
2023-04-24T12:41:00.534Z,68.80
2023-04-24T12:42:00.554Z,65.62
2023-04-24T12:43:00.521Z,67.95
2023-04-24T12:44:00.711Z,69.37
2023-04-24T12:45:01.566Z,68.71
2023-04-24T12:46:00.481Z,68.98
2023-04-24T12:47:00.729Z,70.75
2023-04-24T12:48:00.678Z,69.92
2023-04-24T12:49:00.957Z,70.54
2023-04-24T12:50:00.470Z,71.59
2023-04-24T12:51:00.451Z,64.36
2023-04-24T12:52:00.647Z,66.90
2023-04-24T12:53:00.523Z,70.27
2023-04-24T12:54:00.842Z,68.62
2023-04-24T12:55:00.461Z,67.23
2023-04-24T12:56:00.392Z,64.47
2023-04-24T12:57:00.455Z,69.51
2023-04-24T12:58:00.387Z,71.03
2023-04-24T12:59:00.575Z,68.19
2023-04-24T13:00:00.390Z,68.00
2023-04-24T13:01:00.377Z,63.85
2023-04-24T13:02:00.417Z,67.54
2023-04-24T13:03:00.608Z,69.75
2023-04-24T13:04:00.550Z,65.97
2023-04-24T13:05:00.336Z,67.10
2023-04-24T13:06:01.382Z,68.39
2023-04-24T13:07:00.345Z,66.46
2023-04-24T13:08:00.333Z,68.45
2023-04-24T13:09:00.294Z,67.56